createdAt,value
2023-03-06T00:01:05.974Z,3.83
2023-03-06T00:03:36.422Z,3.37
2023-03-06T00:06:05.799Z,4.00
2023-03-06T00:08:35.860Z,2.90
2023-03-06T00:11:06.014Z,4.03
2023-03-06T00:13:35.816Z,4.37
2023-03-06T00:16:05.516Z,3.90
2023-03-06T00:18:37.715Z,3.43
2023-03-06T00:21:09.676Z,3.67
2023-03-06T00:23:39.830Z,3.53
2023-03-06T00:26:11.292Z,3.60
2023-03-06T00:28:42.357Z,3.30
2023-03-06T00:31:12.416Z,3.30
2023-03-06T00:33:44.106Z,3.33
2023-03-06T00:36:14.352Z,3.47
2023-03-06T00:38:44.365Z,3.13
2023-03-06T00:41:15.482Z,3.97
2023-03-06T00:43:44.455Z,3.83
2023-03-06T00:46:13.625Z,4.47
2023-03-06T00:48:44.120Z,4.40
2023-03-06T00:51:14.123Z,3.83
2023-03-06T00:53:43.553Z,3.97
2023-03-06T00:56:13.183Z,3.70
2023-03-06T00:58:42.145Z,3.33
2023-03-06T01:01:11.177Z,4.00
2023-03-06T01:03:40.249Z,3.80
2023-03-06T01:06:11.038Z,3.77
2023-03-06T01:08:41.110Z,3.73
2023-03-06T01:11:11.583Z,4.13
2023-03-06T01:13:42.076Z,4.53
2023-03-06T01:16:14.976Z,4.13
2023-03-06T01:18:44.821Z,4.03
2023-03-06T01:21:15.489Z,3.90
2023-03-06T01:23:46.093Z,4.00
2023-03-06T01:26:15.198Z,3.60
2023-03-06T01:28:46.447Z,3.70
2023-03-06T01:31:16.702Z,4.43
2023-03-06T01:33:47.293Z,4.10
2023-03-06T01:36:18.930Z,4.20
2023-03-06T01:38:48.449Z,4.27
2023-03-06T01:41:18.645Z,4.57
2023-03-06T01:43:49.942Z,3.57
2023-03-06T01:46:55.321Z,4.50
2023-03-06T01:49:31.433Z,4.07
2023-03-06T01:52:08.467Z,4.70
2023-03-06T01:54:43.695Z,4.10
2023-03-06T01:57:19.227Z,4.10
2023-03-06T01:59:55.953Z,3.83
2023-03-06T02:02:26.753Z,4.33
2023-03-06T02:04:57.500Z,4.47
2023-03-06T02:07:29.294Z,4.67
2023-03-06T02:09:59.564Z,3.60
2023-03-06T02:12:28.534Z,4.93
2023-03-06T02:14:58.085Z,5.50
2023-03-06T02:17:26.980Z,4.80
2023-03-06T02:20:07.925Z,3.80
2023-03-06T02:22:49.438Z,3.63
2023-03-06T02:25:35.701Z,4.37
2023-03-06T02:28:07.145Z,3.80
2023-03-06T02:30:38.708Z,3.97
2023-03-06T02:33:09.057Z,4.37
2023-03-06T02:35:42.264Z,4.37
2023-03-06T02:38:16.573Z,4.47
2023-03-06T02:40:52.973Z,4.40
2023-03-06T02:43:27.307Z,4.47
2023-03-06T02:45:56.214Z,4.40
2023-03-06T02:48:26.681Z,4.23
2023-03-06T02:50:56.682Z,3.90
2023-03-06T02:53:26.781Z,4.23
2023-03-06T02:55:57.374Z,4.77
2023-03-06T02:58:27.236Z,4.53
2023-03-06T03:00:56.170Z,3.90
2023-03-06T03:03:27.055Z,5.13
2023-03-06T03:05:58.428Z,3.80
2023-03-06T03:08:27.839Z,4.40
2023-03-06T03:10:59.708Z,4.37
2023-03-06T03:13:29.500Z,4.20
2023-03-06T03:16:04.761Z,4.23
2023-03-06T03:18:33.897Z,4.47
2023-03-06T03:21:03.325Z,4.00
2023-03-06T03:23:34.381Z,4.27
2023-03-06T03:26:11.614Z,4.53
2023-03-06T03:28:41.171Z,3.80
2023-03-06T03:31:12.638Z,4.47
2023-03-06T03:33:42.766Z,4.20
2023-03-06T03:36:12.169Z,4.23
2023-03-06T03:38:41.589Z,4.20
2023-03-06T03:41:13.079Z,5.87
2023-03-06T03:43:43.493Z,4.53
2023-03-06T03:46:13.050Z,4.03
2023-03-06T03:48:43.745Z,4.60
2023-03-06T03:51:16.605Z,4.70
2023-03-06T03:53:47.504Z,4.50
2023-03-06T03:56:18.359Z,5.37
2023-03-06T03:58:48.263Z,5.37
2023-03-06T04:01:18.814Z,4.50
2023-03-06T04:03:48.460Z,4.23
2023-03-06T04:06:17.927Z,5.27
2023-03-06T04:08:47.941Z,5.13
2023-03-06T04:11:19.807Z,5.23
2023-03-06T04:13:48.681Z,4.83
2023-03-06T04:16:18.525Z,5.47
2023-03-06T04:18:49.031Z,4.63
2023-03-06T04:21:18.505Z,5.90
2023-03-06T04:23:48.914Z,4.87
2023-03-06T04:26:19.831Z,5.07
2023-03-06T04:28:49.897Z,4.80
2023-03-06T04:31:19.894Z,5.50
2023-03-06T04:33:48.505Z,5.70
2023-03-06T04:36:29.728Z,5.63
2023-03-06T04:38:59.624Z,5.40
2023-03-06T04:41:31.259Z,5.87
2023-03-06T04:44:02.292Z,6.03
2023-03-06T04:46:31.127Z,5.70
2023-03-06T04:49:01.975Z,5.20
2023-03-06T04:51:31.536Z,4.87
2023-03-06T04:54:01.103Z,5.50
2023-03-06T04:56:32.399Z,6.00
2023-03-06T04:59:02.764Z,5.90
2023-03-06T05:01:33.148Z,5.77
2023-03-06T05:04:02.087Z,5.63
2023-03-06T05:06:33.050Z,5.80
2023-03-06T05:09:02.895Z,6.73
2023-03-06T05:11:34.299Z,5.63
2023-03-06T05:14:04.328Z,6.13
2023-03-06T05:16:33.782Z,4.83
2023-03-06T05:19:03.364Z,6.10
2023-03-06T05:21:32.330Z,5.23
2023-03-06T05:24:01.266Z,5.10
2023-03-06T05:26:32.657Z,5.93
2023-03-06T05:29:02.150Z,5.23
2023-03-06T05:31:32.168Z,4.93
2023-03-06T05:34:02.122Z,5.07
2023-03-06T05:36:32.161Z,5.57
2023-03-06T05:39:02.651Z,5.63
2023-03-06T05:41:32.454Z,5.57
2023-03-06T05:44:02.514Z,6.47
2023-03-06T05:46:32.053Z,7.70
2023-03-06T05:49:03.245Z,6.30
2023-03-06T05:51:32.710Z,5.60
2023-03-06T05:54:02.687Z,4.50
2023-03-06T05:56:33.523Z,5.30
2023-03-06T05:59:03.442Z,4.53
2023-03-06T06:01:34.014Z,6.20
2023-03-06T06:04:04.510Z,5.80
2023-03-06T06:06:34.214Z,4.47
2023-03-06T06:09:04.353Z,4.87
2023-03-06T06:11:35.248Z,4.83
2023-03-06T06:14:05.204Z,4.77
2023-03-06T06:16:34.175Z,5.63
2023-03-06T06:19:04.520Z,5.93
2023-03-06T06:21:35.874Z,4.40
2023-03-06T06:24:06.326Z,5.50
2023-03-06T06:26:37.409Z,5.33
2023-03-06T06:29:07.220Z,5.40
2023-03-06T06:31:37.330Z,5.63
2023-03-06T06:34:07.308Z,6.30
2023-03-06T06:36:37.911Z,5.20
2023-03-06T06:39:08.218Z,5.10
2023-03-06T06:41:57.008Z,5.67
2023-03-06T06:44:29.475Z,5.57
2023-03-06T06:47:21.893Z,5.20
2023-03-06T06:49:53.265Z,5.77
2023-03-06T06:52:23.093Z,5.00
2023-03-06T06:54:52.533Z,5.97
2023-03-06T06:57:23.366Z,5.10
2023-03-06T06:59:54.179Z,5.60
2023-03-06T07:02:24.184Z,6.30
2023-03-06T07:05:04.192Z,6.13
2023-03-06T07:07:37.098Z,5.37
2023-03-06T07:10:09.987Z,6.70
2023-03-06T07:12:41.315Z,7.20
2023-03-06T07:15:15.095Z,6.97
2023-03-06T07:17:45.245Z,7.00
2023-03-06T07:20:15.426Z,6.43
2023-03-06T07:22:51.239Z,7.80
2023-03-06T07:25:21.638Z,6.60
2023-03-06T07:27:55.328Z,7.90
2023-03-06T07:30:25.819Z,6.90
2023-03-06T07:32:56.748Z,6.70
2023-03-06T07:35:27.285Z,7.87
2023-03-06T07:37:57.972Z,6.83
2023-03-06T07:40:27.881Z,7.80
2023-03-06T07:43:16.913Z,10.17
2023-03-06T07:45:48.952Z,7.77
2023-03-06T07:48:18.797Z,7.43
2023-03-06T07:50:57.747Z,7.20
2023-03-06T07:53:27.277Z,6.90
2023-03-06T07:55:56.517Z,7.50
2023-03-06T07:58:27.617Z,6.90
2023-03-06T08:00:57.024Z,8.47
2023-03-06T08:03:27.023Z,7.30
2023-03-06T08:05:55.992Z,7.57
2023-03-06T08:08:25.852Z,7.40
2023-03-06T08:10:54.694Z,7.03
2023-03-06T08:13:26.188Z,7.60
2023-03-06T08:15:56.798Z,8.30
2023-03-06T08:18:27.556Z,7.27
2023-03-06T08:21:04.988Z,7.47
2023-03-06T08:23:36.296Z,7.07
2023-03-06T08:26:09.359Z,6.60
2023-03-06T08:28:39.781Z,8.20
2023-03-06T08:31:14.128Z,7.20
2023-03-06T08:33:42.665Z,7.40
2023-03-06T08:36:12.435Z,7.40
2023-03-06T08:38:41.746Z,6.40
2023-03-06T08:41:12.531Z,7.43
2023-03-06T08:43:44.339Z,7.53
2023-03-06T08:46:13.500Z,7.80
2023-03-06T08:48:43.115Z,8.37
2023-03-06T08:51:14.232Z,6.90
2023-03-06T08:53:44.647Z,6.57
2023-03-06T08:56:23.155Z,7.37
2023-03-06T08:58:55.822Z,6.93
2023-03-06T09:01:29.937Z,24.33
2023-03-06T09:04:02.529Z,8.03
2023-03-06T09:06:34.277Z,6.53
2023-03-06T09:09:03.886Z,7.90
2023-03-06T09:11:34.404Z,7.23
2023-03-06T09:14:06.330Z,7.07
2023-03-06T09:16:36.676Z,7.87
2023-03-06T09:19:07.303Z,6.40
2023-03-06T09:21:36.823Z,7.10
2023-03-06T09:24:07.410Z,7.17
2023-03-06T09:26:45.542Z,10.37
2023-03-06T09:29:18.590Z,7.83
2023-03-06T09:31:48.760Z,7.00
2023-03-06T09:34:18.373Z,7.57
2023-03-06T09:36:56.934Z,9.40
2023-03-06T09:39:29.038Z,9.17
2023-03-06T09:42:00.252Z,17.17
2023-03-06T09:44:33.598Z,9.07
2023-03-06T09:47:23.733Z,7.70
2023-03-06T09:50:10.412Z,6.93
2023-03-06T09:52:53.102Z,8.00
2023-03-06T09:55:27.145Z,7.33
2023-03-06T09:58:03.325Z,7.37
2023-03-06T10:00:40.647Z,7.67
2023-03-06T10:03:29.705Z,6.83
2023-03-06T10:06:11.428Z,6.70
2023-03-06T10:08:52.743Z,7.03
2023-03-06T10:11:32.966Z,7.57
2023-03-06T10:14:19.369Z,7.90
2023-03-06T10:16:50.477Z,6.87
2023-03-06T10:19:21.910Z,8.23
2023-03-06T10:22:01.686Z,6.97
2023-03-06T10:25:05.987Z,6.50
2023-03-06T10:27:47.844Z,6.73
2023-03-06T10:30:53.782Z,7.60
2023-03-06T10:33:48.837Z,7.23
2023-03-06T10:36:20.594Z,7.27
2023-03-06T10:38:50.917Z,7.60
2023-03-06T10:41:29.247Z,7.03
2023-03-06T10:44:25.029Z,7.43
2023-03-06T10:46:57.047Z,7.27
2023-03-06T10:49:34.582Z,6.80
2023-03-06T10:52:08.435Z,7.47
2023-03-06T10:54:41.627Z,5.43
2023-03-06T10:57:27.044Z,6.30
2023-03-06T10:59:59.296Z,6.70
2023-03-06T11:02:33.082Z,6.40
2023-03-06T11:05:05.530Z,5.77
2023-03-06T11:07:36.212Z,6.20
2023-03-06T11:10:19.933Z,7.60
2023-03-06T11:13:00.439Z,6.40
2023-03-06T11:15:30.773Z,6.47
2023-03-06T11:18:05.012Z,5.40
2023-03-06T11:20:52.008Z,5.50
2023-03-06T11:23:35.757Z,6.13
2023-03-06T11:26:26.931Z,5.83
2023-03-06T11:29:13.421Z,5.63
2023-03-06T11:31:53.359Z,5.40
2023-03-06T11:34:37.188Z,5.73
2023-03-06T11:37:18.028Z,6.77
2023-03-06T11:39:55.164Z,5.33
2023-03-06T11:42:31.882Z,5.73
2023-03-06T11:45:23.306Z,5.43
2023-03-06T11:48:02.746Z,4.70
2023-03-06T11:50:39.244Z,5.07
2023-03-06T11:53:18.627Z,4.80
2023-03-06T11:56:00.790Z,4.63
2023-03-06T11:59:04.356Z,4.73
2023-03-06T12:01:40.908Z,4.53
2023-03-06T12:04:42.673Z,3.73
2023-03-06T12:07:27.240Z,4.20
2023-03-06T12:10:18.848Z,4.00
2023-03-06T12:13:29.780Z,5.20
2023-03-06T12:16:28.373Z,3.97
2023-03-06T12:19:13.712Z,4.80
2023-03-06T12:22:00.712Z,4.20
2023-03-06T12:25:25.716Z,3.53
2023-03-06T12:28:16.491Z,23.20
2023-03-06T12:31:50.610Z,4.40
2023-03-06T12:34:36.533Z,3.07
2023-03-06T12:37:22.452Z,4.53
2023-03-06T12:40:24.447Z,3.87
2023-03-06T12:43:56.428Z,4.37
2023-03-06T12:46:28.099Z,3.60
2023-03-06T12:49:06.844Z,3.33
2023-03-06T12:51:39.964Z,3.30
2023-03-06T12:54:14.452Z,3.67
2023-03-06T12:56:46.311Z,3.87
2023-03-06T12:59:40.772Z,3.80
2023-03-06T13:02:53.049Z,3.80
2023-03-06T13:06:06.585Z,3.80
2023-03-06T13:09:05.369Z,4.00
2023-03-06T13:12:11.843Z,3.50
2023-03-06T13:15:35.063Z,3.70
2023-03-06T13:18:38.841Z,3.40
2023-03-06T13:21:45.409Z,3.40
2023-03-06T13:24:22.997Z,3.50
2023-03-06T13:26:59.959Z,3.00
2023-03-06T13:30:32.205Z,4.00
2023-03-06T13:33:02.174Z,4.70
2023-03-06T13:35:53.652Z,4.20
2023-03-06T13:38:34.839Z,4.43
2023-03-06T13:41:43.254Z,5.17
2023-03-06T13:44:52.224Z,4.30
2023-03-06T13:50:46.648Z,5.00
2023-03-06T13:53:52.015Z,4.80
2023-03-06T13:57:11.496Z,4.03
2023-03-06T14:00:20.026Z,4.60
2023-03-06T14:03:51.830Z,5.43
2023-03-06T14:06:53.877Z,5.07
2023-03-06T14:09:31.050Z,4.80
2023-03-06T14:12:07.055Z,4.60
2023-03-06T14:14:44.871Z,4.70
2023-03-06T14:17:27.936Z,5.10
2023-03-06T14:20:02.854Z,5.80
2023-03-06T14:22:32.533Z,4.80
2023-03-06T14:25:09.289Z,5.53
2023-03-06T14:28:13.802Z,4.97
2023-03-06T14:30:51.878Z,5.30
2023-03-06T14:33:33.653Z,5.70
2023-03-06T14:36:10.716Z,6.00
2023-03-06T14:38:46.282Z,5.70
2023-03-06T14:41:25.491Z,5.43
2023-03-06T14:43:55.105Z,6.07
2023-03-06T14:46:26.292Z,5.50
2023-03-06T14:49:00.011Z,6.10
2023-03-06T14:51:33.944Z,6.67
2023-03-06T14:54:06.299Z,8.80
2023-03-06T14:56:41.840Z,6.00
2023-03-06T14:59:18.868Z,6.57
2023-03-06T15:01:52.398Z,7.40
2023-03-06T15:04:35.793Z,5.90
2023-03-06T15:07:11.011Z,7.90
2023-03-06T15:09:44.871Z,5.57
2023-03-06T15:12:37.529Z,6.20
2023-03-06T15:15:30.122Z,4.70
2023-03-06T15:17:59.122Z,5.10
2023-03-06T15:20:45.946Z,5.40
2023-03-06T15:23:37.542Z,5.63
2023-03-06T15:26:29.427Z,5.53
2023-03-06T15:29:24.471Z,4.70
2023-03-06T15:31:53.539Z,5.73
2023-03-06T15:34:27.659Z,5.70
2023-03-06T15:36:58.819Z,5.70
2023-03-06T15:39:36.299Z,5.07
2023-03-06T15:42:19.762Z,6.40
2023-03-06T15:44:55.485Z,6.60
2023-03-06T15:47:25.355Z,5.40
2023-03-06T15:49:58.764Z,6.27
2023-03-06T15:52:27.837Z,5.40
2023-03-06T15:54:59.673Z,5.80
2023-03-06T15:57:30.239Z,5.97
2023-03-06T16:00:01.531Z,6.50
2023-03-06T16:02:31.089Z,6.43
2023-03-06T16:05:02.619Z,7.40
2023-03-06T16:07:33.203Z,6.93
2023-03-06T16:10:05.181Z,6.00
2023-03-06T16:12:35.962Z,6.43
2023-03-06T16:15:08.469Z,5.97
2023-03-06T16:17:37.619Z,6.23
2023-03-06T16:20:11.272Z,6.60
2023-03-06T16:22:41.203Z,7.53
2023-03-06T16:25:11.944Z,6.10
2023-03-06T16:27:41.390Z,7.37
2023-03-06T16:30:20.618Z,6.50
2023-03-06T16:32:50.357Z,6.80
2023-03-06T16:35:20.891Z,6.57
2023-03-06T16:37:50.033Z,5.80
2023-03-06T16:40:24.447Z,7.17
2023-03-06T16:42:55.246Z,7.00
2023-03-06T16:45:26.418Z,7.30
2023-03-06T16:47:56.023Z,7.00
2023-03-06T16:50:29.229Z,7.63
2023-03-06T16:52:59.918Z,7.10
2023-03-06T16:55:30.949Z,7.57
2023-03-06T16:58:01.407Z,6.80
2023-03-06T17:00:32.114Z,8.10
2023-03-06T17:03:02.702Z,7.73
2023-03-06T17:05:35.381Z,7.67
2023-03-06T17:08:05.216Z,7.43
2023-03-06T17:10:36.137Z,7.67
2023-03-06T17:13:07.888Z,7.60
2023-03-06T17:15:37.761Z,7.10
2023-03-06T17:18:07.626Z,7.33
2023-03-06T17:20:37.074Z,8.50
2023-03-06T17:23:07.026Z,7.30
2023-03-06T17:25:39.541Z,7.03
2023-03-06T17:28:09.250Z,7.63
2023-03-06T17:30:38.687Z,8.20
2023-03-06T17:33:08.387Z,8.00
2023-03-06T17:35:38.462Z,8.37
2023-03-06T17:38:07.944Z,7.13
2023-03-06T17:40:39.483Z,7.40
2023-03-06T17:43:10.093Z,8.57
2023-03-06T17:45:39.955Z,7.20
2023-03-06T17:48:10.004Z,7.30
2023-03-06T17:50:39.438Z,7.43
2023-03-06T17:53:10.081Z,9.40
2023-03-06T17:55:41.838Z,8.53
2023-03-06T17:58:12.437Z,7.77
2023-03-06T18:00:42.156Z,8.40
2023-03-06T18:03:12.067Z,7.13
2023-03-06T18:05:41.437Z,7.70
2023-03-06T18:08:11.291Z,8.57
2023-03-06T18:10:43.943Z,7.07
2023-03-06T18:13:12.548Z,7.13
2023-03-06T18:15:43.060Z,8.70
2023-03-06T18:18:11.535Z,7.70
2023-03-06T18:20:42.606Z,7.87
2023-03-06T18:23:11.595Z,7.13
2023-03-06T18:25:42.548Z,7.20
2023-03-06T18:28:13.246Z,8.27
2023-03-06T18:30:44.262Z,8.03
2023-03-06T18:33:13.531Z,7.03
2023-03-06T18:35:44.229Z,7.70
2023-03-06T18:38:14.365Z,8.90
2023-03-06T18:40:46.330Z,7.60
2023-03-06T18:43:15.882Z,6.83
2023-03-06T18:45:54.496Z,6.93
2023-03-06T18:48:25.306Z,6.90
2023-03-06T18:50:54.203Z,6.80
2023-03-06T18:53:24.574Z,6.53
2023-03-06T18:55:56.404Z,7.03
2023-03-06T18:58:25.359Z,8.47
2023-03-06T19:00:54.880Z,8.00
2023-03-06T19:03:24.485Z,6.70
2023-03-06T19:05:53.755Z,6.73
2023-03-06T19:08:24.463Z,7.07
2023-03-06T19:10:56.421Z,6.80
2023-03-06T19:13:26.271Z,6.73
2023-03-06T19:15:57.747Z,7.20
2023-03-06T19:18:29.315Z,6.33
2023-03-06T19:21:09.585Z,6.93
2023-03-06T19:23:40.229Z,8.10
2023-03-06T19:26:11.898Z,7.77
2023-03-06T19:28:44.356Z,7.40
2023-03-06T19:31:16.090Z,7.20
2023-03-06T19:33:47.553Z,6.63
2023-03-06T19:36:18.586Z,7.80
2023-03-06T19:38:50.403Z,7.50
2023-03-06T19:41:21.727Z,8.43
2023-03-06T19:43:54.680Z,9.47
2023-03-06T19:46:24.366Z,7.77
2023-03-06T19:48:58.589Z,7.93
2023-03-06T19:51:29.268Z,7.80
2023-03-06T19:53:59.235Z,8.33
2023-03-06T19:56:32.519Z,9.17
2023-03-06T19:59:02.646Z,7.30
2023-03-06T20:01:32.412Z,8.50
2023-03-06T20:04:03.255Z,8.37
2023-03-06T20:06:37.716Z,8.67
2023-03-06T20:09:10.321Z,10.80
2023-03-06T20:11:40.722Z,8.93
2023-03-06T20:14:12.113Z,8.33
2023-03-06T20:16:41.565Z,9.63
2023-03-06T20:19:11.914Z,9.83
2023-03-06T20:21:41.154Z,9.00
2023-03-06T20:24:17.212Z,8.77
2023-03-06T20:26:51.539Z,8.13
2023-03-06T20:29:21.628Z,9.07
2023-03-06T20:31:50.926Z,9.57
2023-03-06T20:34:20.575Z,8.90
2023-03-06T20:36:50.115Z,9.80
2023-03-06T20:39:22.346Z,9.63
2023-03-06T20:41:53.087Z,9.77
2023-03-06T20:44:23.583Z,9.63
2023-03-06T20:46:53.040Z,9.70
2023-03-06T20:49:22.083Z,9.70
2023-03-06T20:51:52.423Z,9.57
2023-03-06T20:54:22.037Z,10.83
2023-03-06T20:56:52.690Z,10.13
2023-03-06T20:59:22.230Z,9.97
2023-03-06T21:01:52.735Z,9.50
2023-03-06T21:04:22.545Z,10.33
2023-03-06T21:06:55.476Z,9.87
2023-03-06T21:09:24.544Z,10.00
2023-03-06T21:11:55.361Z,10.90
2023-03-06T21:14:24.290Z,10.30
2023-03-06T21:16:53.970Z,10.60
2023-03-06T21:19:23.885Z,9.77
2023-03-06T21:21:54.517Z,9.80
2023-03-06T21:24:23.840Z,9.27
2023-03-06T21:26:54.561Z,10.27
2023-03-06T21:29:23.560Z,10.17
2023-03-06T21:31:54.080Z,10.30
2023-03-06T21:34:22.971Z,9.83
2023-03-06T21:36:52.775Z,10.40
2023-03-06T21:39:22.242Z,11.10
2023-03-06T21:41:54.759Z,10.50
2023-03-06T21:44:23.707Z,11.70
2023-03-06T21:46:52.683Z,10.60
2023-03-06T21:49:26.594Z,10.67
2023-03-06T21:51:56.926Z,11.20
2023-03-06T21:54:27.434Z,12.20
2023-03-06T21:56:58.176Z,11.33
2023-03-06T21:59:27.663Z,12.10
2023-03-06T22:01:57.436Z,10.97
2023-03-06T22:04:26.020Z,11.73
2023-03-06T22:06:55.629Z,11.40
2023-03-06T22:09:24.745Z,9.47
2023-03-06T22:11:53.667Z,12.50
2023-03-06T22:14:24.567Z,12.23
2023-03-06T22:16:53.282Z,12.53
2023-03-06T22:19:22.273Z,12.00
2023-03-06T22:21:51.529Z,13.17
2023-03-06T22:24:21.463Z,11.57
2023-03-06T22:26:50.662Z,12.90
2023-03-06T22:29:21.870Z,10.77
2023-03-06T22:31:53.252Z,12.90
2023-03-06T22:34:23.932Z,12.97
2023-03-06T22:36:52.924Z,13.23
2023-03-06T22:39:22.331Z,13.63
2023-03-06T22:41:51.770Z,12.23
2023-03-06T22:44:22.437Z,12.40
2023-03-06T22:46:54.128Z,12.37
2023-03-06T22:49:23.655Z,11.63
2023-03-06T22:51:52.577Z,12.70
2023-03-06T22:54:22.020Z,11.60
2023-03-06T22:56:51.935Z,13.33
2023-03-06T22:59:21.811Z,11.90
2023-03-06T23:01:50.811Z,12.57
2023-03-06T23:04:22.208Z,12.20
2023-03-06T23:06:50.593Z,12.40
2023-03-06T23:09:23.026Z,12.97
2023-03-06T23:11:53.676Z,11.70
2023-03-06T23:14:24.006Z,8.70
2023-03-06T23:16:53.218Z,13.13
2023-03-06T23:19:24.048Z,12.50
2023-03-06T23:21:53.530Z,13.00
2023-03-06T23:24:23.034Z,11.00
2023-03-06T23:26:53.036Z,13.20
2023-03-06T23:29:22.987Z,12.60
2023-03-06T23:31:51.879Z,10.00
2023-03-06T23:34:23.683Z,11.70
2023-03-06T23:36:53.173Z,12.80
2023-03-06T23:39:21.627Z,12.13
2023-03-06T23:41:51.192Z,11.63
2023-03-06T23:44:21.225Z,12.60
2023-03-06T23:46:51.506Z,10.67
2023-03-06T23:49:23.336Z,10.60
2023-03-06T23:51:53.867Z,9.70
2023-03-06T23:54:22.821Z,11.03
2023-03-06T23:56:52.753Z,11.73
2023-03-06T23:59:22.765Z,9.40
